sensor_id;sensor_type;location;lat;lon;timestamp;pressure;altitude;pressure_sealevel;temperature;humidity
20971;BME280;10644;48.834;10.088;2023-02-08T00:00:43;98617.56;;;0.87;50.66
20971;BME280;10644;48.834;10.088;2023-02-08T00:03:27;98611.94;;;1.05;50.55
20971;BME280;10644;48.834;10.088;2023-02-08T00:05:55;98606.00;;;1.01;50.35
20971;BME280;10644;48.834;10.088;2023-02-08T00:08:33;98607.94;;;1.20;49.68
20971;BME280;10644;48.834;10.088;2023-02-08T00:11:03;98613.19;;;1.32;49.68
20971;BME280;10644;48.834;10.088;2023-02-08T00:13:31;98610.06;;;0.92;50.78
20971;BME280;10644;48.834;10.088;2023-02-08T00:16:04;98599.25;;;1.00;50.10
20971;BME280;10644;48.834;10.088;2023-02-08T00:18:52;98599.50;;;1.15;50.14
20971;BME280;10644;48.834;10.088;2023-02-08T00:21:18;98594.34;;;1.11;49.89
20971;BME280;10644;48.834;10.088;2023-02-08T00:23:47;98592.84;;;1.23;49.78
20971;BME280;10644;48.834;10.088;2023-02-08T00:26:32;98593.25;;;1.55;49.06
20971;BME280;10644;48.834;10.088;2023-02-08T00:29:01;98592.53;;;1.65;48.96
20971;BME280;10644;48.834;10.088;2023-02-08T00:31:34;98587.56;;;1.74;48.80
20971;BME280;10644;48.834;10.088;2023-02-08T00:34:02;98591.88;;;1.79;48.56
20971;BME280;10644;48.834;10.088;2023-02-08T00:36:48;98593.50;;;1.74;48.60
20971;BME280;10644;48.834;10.088;2023-02-08T00:39:14;98585.97;;;1.77;48.47
20971;BME280;10644;48.834;10.088;2023-02-08T00:41:46;98597.84;;;1.89;48.06
20971;BME280;10644;48.834;10.088;2023-02-08T00:44:31;98599.59;;;1.96;47.90
20971;BME280;10644;48.834;10.088;2023-02-08T00:46:57;98597.88;;;1.90;48.00
20971;BME280;10644;48.834;10.088;2023-02-08T00:49:39;98593.72;;;1.95;47.82
20971;BME280;10644;48.834;10.088;2023-02-08T00:52:38;98596.28;;;2.00;47.60
20971;BME280;10644;48.834;10.088;2023-02-08T00:55:05;98596.34;;;2.06;47.62
20971;BME280;10644;48.834;10.088;2023-02-08T00:57:32;98588.81;;;2.10;47.50
20971;BME280;10644;48.834;10.088;2023-02-08T00:59:57;98593.72;;;1.95;47.62
20971;BME280;10644;48.834;10.088;2023-02-08T01:02:24;98593.66;;;1.89;47.81
20971;BME280;10644;48.834;10.088;2023-02-08T01:04:58;98591.75;;;1.70;47.94
20971;BME280;10644;48.834;10.088;2023-02-08T01:07:36;98588.44;;;1.74;47.95
20971;BME280;10644;48.834;10.088;2023-02-08T01:10:32;98592.50;;;1.62;47.97
20971;BME280;10644;48.834;10.088;2023-02-08T01:13:20;98592.66;;;1.77;47.88
20971;BME280;10644;48.834;10.088;2023-02-08T01:15:45;98594.28;;;1.70;47.76
20971;BME280;10644;48.834;10.088;2023-02-08T01:18:19;98588.44;;;1.74;47.73
20971;BME280;10644;48.834;10.088;2023-02-08T01:20:45;98588.47;;;1.77;47.44
20971;BME280;10644;48.834;10.088;2023-02-08T01:23:23;98588.44;;;1.74;47.13
20971;BME280;10644;48.834;10.088;2023-02-08T01:26:09;98592.34;;;1.50;47.73
20971;BME280;10644;48.834;10.088;2023-02-08T01:28:48;98595.72;;;1.49;47.94
20971;BME280;10644;48.834;10.088;2023-02-08T01:31:21;98591.59;;;1.55;48.13
20971;BME280;10644;48.834;10.088;2023-02-08T01:33:49;98585.59;;;1.47;48.02
20971;BME280;10644;48.834;10.088;2023-02-08T01:36:36;98583.13;;;1.50;48.13
20971;BME280;10644;48.834;10.088;2023-02-08T01:39:03;98575.63;;;1.59;47.84
20971;BME280;10644;48.834;10.088;2023-02-08T01:41:35;98579.94;;;1.66;47.35
20971;BME280;10644;48.834;10.088;2023-02-08T01:47:01;98568.28;;;1.80;47.09
20971;BME280;10644;48.834;10.088;2023-02-08T01:49:35;98570.72;;;1.71;47.39
20971;BME280;10644;48.834;10.088;2023-02-08T01:52:22;98572.13;;;1.45;47.81
20971;BME280;10644;48.834;10.088;2023-02-08T01:54:59;98566.28;;;1.52;47.84
20971;BME280;10644;48.834;10.088;2023-02-08T01:57:26;98572.22;;;1.56;47.76
20971;BME280;10644;48.834;10.088;2023-02-08T02:00:16;98573.50;;;1.22;48.23
20971;BME280;10644;48.834;10.088;2023-02-08T02:02:53;98560.06;;;1.26;47.92
20971;BME280;10644;48.834;10.088;2023-02-08T02:05:28;98568.63;;;1.36;47.82
20971;BME280;10644;48.834;10.088;2023-02-08T02:08:14;98566.09;;;1.37;47.77
20971;BME280;10644;48.834;10.088;2023-02-08T02:10:48;98565.88;;;1.19;48.02
20971;BME280;10644;48.834;10.088;2023-02-08T02:13:18;98550.50;;;1.01;48.68
20971;BME280;10644;48.834;10.088;2023-02-08T02:15:47;98561.44;;;1.00;48.48
20971;BME280;10644;48.834;10.088;2023-02-08T02:18:23;98557.31;;;1.08;48.53
20971;BME280;10644;48.834;10.088;2023-02-08T02:23:44;98555.53;;;0.98;48.89
20971;BME280;10644;48.834;10.088;2023-02-08T02:42:30;98545.56;;;-0.03;50.65
20971;BME280;10644;48.834;10.088;2023-02-08T02:48:39;98540.22;;;0.30;50.09
20971;BME280;10644;48.834;10.088;2023-02-08T02:59:37;98550.16;;;0.22;50.52
20971;BME280;10644;48.834;10.088;2023-02-08T03:02:04;98547.38;;;0.07;50.07
20971;BME280;10644;48.834;10.088;2023-02-08T03:13:22;98547.47;;;0.13;50.24
20971;BME280;10644;48.834;10.088;2023-02-08T03:16:12;98552.69;;;0.22;50.05
20971;BME280;10644;48.834;10.088;2023-02-08T03:27:51;98543.72;;;-0.10;50.39
20971;BME280;10644;48.834;10.088;2023-02-08T03:37:04;98557.53;;;-0.34;50.59
20971;BME280;10644;48.834;10.088;2023-02-08T03:39:30;98547.44;;;-0.37;50.85
20971;BME280;10644;48.834;10.088;2023-02-08T03:42:07;98550.03;;;-0.32;50.46
20971;BME280;10644;48.834;10.088;2023-02-08T03:44:38;98556.66;;;-0.36;50.59
20971;BME280;10644;48.834;10.088;2023-02-08T03:47:17;98552.69;;;-0.25;50.47
20971;BME280;10644;48.834;10.088;2023-02-08T03:50:05;98538.66;;;-0.13;50.08
20971;BME280;10644;48.834;10.088;2023-02-08T03:52:31;98542.41;;;-0.37;49.87
20971;BME280;10644;48.834;10.088;2023-02-08T03:55:00;98540.75;;;-0.36;49.66
20971;BME280;10644;48.834;10.088;2023-02-08T03:57:30;98544.75;;;-0.44;49.78
20971;BME280;10644;48.834;10.088;2023-02-08T04:00:13;98540.53;;;-0.47;49.64
20971;BME280;10644;48.834;10.088;2023-02-08T04:05:58;98543.50;;;-0.66;49.95
20971;BME280;10644;48.834;10.088;2023-02-08T04:08:30;98544.56;;;-0.53;49.84
20971;BME280;10644;48.834;10.088;2023-02-08T04:11:13;98534.16;;;-0.71;50.58
20971;BME280;10644;48.834;10.088;2023-02-08T04:14:04;98538.06;;;-0.87;50.92
20971;BME280;10644;48.834;10.088;2023-02-08T04:17:04;98543.69;;;-0.97;50.75
20971;BME280;10644;48.834;10.088;2023-02-08T04:19:40;98536.91;;;-1.02;50.87
20971;BME280;10644;48.834;10.088;2023-02-08T04:22:05;98541.97;;;-0.99;50.86
20971;BME280;10644;48.834;10.088;2023-02-08T04:24:31;98530.94;;;-1.07;50.96
20971;BME280;10644;48.834;10.088;2023-02-08T04:27:07;98527.25;;;-1.23;51.58
20971;BME280;10644;48.834;10.088;2023-02-08T04:29:53;98539.81;;;-1.23;51.49
20971;BME280;10644;48.834;10.088;2023-02-08T04:32:36;98527.75;;;-1.37;52.00
20971;BME280;10644;48.834;10.088;2023-02-08T04:35:11;98532.09;;;-1.30;52.13
20971;BME280;10644;48.834;10.088;2023-02-08T04:37:46;98525.59;;;-1.21;51.48
20971;BME280;10644;48.834;10.088;2023-02-08T04:40:22;98522.28;;;-1.20;51.38
20971;BME280;10644;48.834;10.088;2023-02-08T04:42:56;98528.69;;;-1.32;51.46
20971;BME280;10644;48.834;10.088;2023-02-08T04:45:32;98520.28;;;-1.34;51.66
20971;BME280;10644;48.834;10.088;2023-02-08T04:48:08;98524.75;;;-1.21;51.68
20971;BME280;10644;48.834;10.088;2023-02-08T04:50:42;98533.66;;;-0.97;50.68
20971;BME280;10644;48.834;10.088;2023-02-08T04:53:09;98514.31;;;-1.01;50.88
20971;BME280;10644;48.834;10.088;2023-02-08T04:55:34;98518.44;;;-1.03;51.07
20971;BME280;10644;48.834;10.088;2023-02-08T04:58:30;98525.97;;;-1.03;50.97
20971;BME280;10644;48.834;10.088;2023-02-08T05:01:05;98506.53;;;-1.11;51.49
20971;BME280;10644;48.834;10.088;2023-02-08T05:03:34;98514.28;;;-1.02;51.37
20971;BME280;10644;48.834;10.088;2023-02-08T05:06:07;98513.50;;;-0.98;51.43
20971;BME280;10644;48.834;10.088;2023-02-08T05:08:33;98523.16;;;-0.78;51.05
20971;BME280;10644;48.834;10.088;2023-02-08T05:11:23;98517.28;;;-0.78;50.47
20971;BME280;10644;48.834;10.088;2023-02-08T05:13:53;98502.41;;;-1.08;50.74
20971;BME280;10644;48.834;10.088;2023-02-08T05:16:21;98507.03;;;-0.87;50.75
20971;BME280;10644;48.834;10.088;2023-02-08T05:18:57;98508.44;;;-1.01;51.45
20971;BME280;10644;48.834;10.088;2023-02-08T05:21:25;98511.56;;;-1.11;51.16
20971;BME280;10644;48.834;10.088;2023-02-08T05:23:57;98511.22;;;-0.88;51.03
20971;BME280;10644;48.834;10.088;2023-02-08T05:26:22;98507.88;;;-0.87;50.98
20971;BME280;10644;48.834;10.088;2023-02-08T05:28:47;98503.00;;;-0.79;50.75
20971;BME280;10644;48.834;10.088;2023-02-08T05:31:17;98513.56;;;-0.54;50.29
20971;BME280;10644;48.834;10.088;2023-02-08T05:33:43;98513.22;;;-0.72;50.50
20971;BME280;10644;48.834;10.088;2023-02-08T05:36:17;98510.78;;;-0.67;50.37
20971;BME280;10644;48.834;10.088;2023-02-08T05:38:43;98512.69;;;-0.54;50.10
20971;BME280;10644;48.834;10.088;2023-02-08T05:41:09;98513.44;;;-0.60;50.05
20971;BME280;10644;48.834;10.088;2023-02-08T05:43:36;98519.88;;;-0.74;50.61
20971;BME280;10644;48.834;10.088;2023-02-08T05:46:17;98524.38;;;-0.99;50.97
20971;BME280;10644;48.834;10.088;2023-02-08T05:48:43;98519.66;;;-0.84;50.73
20971;BME280;10644;48.834;10.088;2023-02-08T05:51:13;98513.22;;;-0.72;50.59
20971;BME280;10644;48.834;10.088;2023-02-08T05:53:38;98516.88;;;-0.56;50.11
20971;BME280;10644;48.834;10.088;2023-02-08T05:56:08;98518.53;;;-0.57;49.98
20971;BME280;10644;48.834;10.088;2023-02-08T05:58:33;98525.72;;;-0.32;49.53
20971;BME280;10644;48.834;10.088;2023-02-08T06:01:10;98520.38;;;-0.03;49.54
20971;BME280;10644;48.834;10.088;2023-02-08T06:03:37;98522.69;;;-0.13;49.29
20971;BME280;10644;48.834;10.088;2023-02-08T06:06:14;98528.19;;;-0.33;49.42
20971;BME280;10644;48.834;10.088;2023-02-08T06:08:53;98530.06;;;-0.23;49.71
20971;BME280;10644;48.834;10.088;2023-02-08T06:11:28;98534.22;;;-0.26;49.37
20971;BME280;10644;48.834;10.088;2023-02-08T06:13:58;98526.53;;;-0.32;49.34
20971;BME280;10644;48.834;10.088;2023-02-08T06:16:56;98537.34;;;-0.38;49.99
20971;BME280;10644;48.834;10.088;2023-02-08T06:19:44;98525.94;;;-0.64;50.66
20971;BME280;10644;48.834;10.088;2023-02-08T06:22:09;98535.75;;;-0.76;50.51
20971;BME280;10644;48.834;10.088;2023-02-08T06:24:48;98538.78;;;-0.92;50.92
20971;BME280;10644;48.834;10.088;2023-02-08T06:27:25;98551.38;;;-0.92;51.24
20971;BME280;10644;48.834;10.088;2023-02-08T06:29:53;98535.22;;;-1.03;51.15
20971;BME280;10644;48.834;10.088;2023-02-08T06:32:32;98558.56;;;-1.07;51.57
20971;BME280;10644;48.834;10.088;2023-02-08T06:34:57;98549.09;;;-0.80;51.32
20971;BME280;10644;48.834;10.088;2023-02-08T06:37:42;98550.16;;;-1.09;51.52
20971;BME280;10644;48.834;10.088;2023-02-08T06:40:26;98556.88;;;-1.08;50.99
20971;BME280;10644;48.834;10.088;2023-02-08T06:42:52;98541.09;;;-1.01;51.41
20971;BME280;10644;48.834;10.088;2023-02-08T06:45:19;98538.47;;;-1.07;51.29
20971;BME280;10644;48.834;10.088;2023-02-08T06:47:50;98553.41;;;-1.13;51.48
20971;BME280;10644;48.834;10.088;2023-02-08T06:50:17;98553.59;;;-1.04;51.85
20971;BME280;10644;48.834;10.088;2023-02-08T06:53:14;98547.31;;;-0.84;51.71
20971;BME280;10644;48.834;10.088;2023-02-08T06:55:41;98544.69;;;-0.90;51.33
20971;BME280;10644;48.834;10.088;2023-02-08T06:58:06;98543.38;;;-0.73;51.56
20971;BME280;10644;48.834;10.088;2023-02-08T07:00:38;98526.06;;;-0.58;51.53
20971;BME280;10644;48.834;10.088;2023-02-08T07:03:12;98527.56;;;-0.66;50.39
20971;BME280;10644;48.834;10.088;2023-02-08T07:06:13;98536.13;;;-0.58;50.97
20971;BME280;10644;48.834;10.088;2023-02-08T07:08:49;98531.25;;;-0.92;51.44
20971;BME280;10644;48.834;10.088;2023-02-08T07:11:19;98537.50;;;-1.12;52.89
20971;BME280;10644;48.834;10.088;2023-02-08T07:13:59;98535.34;;;-0.97;52.41
20971;BME280;10644;48.834;10.088;2023-02-08T07:16:26;98528.19;;;-0.78;51.40
20971;BME280;10644;48.834;10.088;2023-02-08T07:18:56;98541.72;;;-0.71;54.06
20971;BME280;10644;48.834;10.088;2023-02-08T07:21:31;98532.47;;;-0.72;53.94
20971;BME280;10644;48.834;10.088;2023-02-08T07:23:58;98539.28;;;-0.68;53.30
20971;BME280;10644;48.834;10.088;2023-02-08T07:26:25;98551.56;;;-0.40;52.04
20971;BME280;10644;48.834;10.088;2023-02-08T07:28:52;98557.88;;;-0.60;51.41
20971;BME280;10644;48.834;10.088;2023-02-08T07:31:25;98545.69;;;-0.82;51.82
20971;BME280;10644;48.834;10.088;2023-02-08T07:34:03;98547.47;;;-0.77;51.68
20971;BME280;10644;48.834;10.088;2023-02-08T07:36:30;98543.38;;;-0.73;51.68
20971;BME280;10644;48.834;10.088;2023-02-08T07:38:55;98561.72;;;-0.77;53.08
20971;BME280;10644;48.834;10.088;2023-02-08T07:41:21;98555.94;;;-0.73;54.03
20971;BME280;10644;48.834;10.088;2023-02-08T07:43:46;98555.81;;;-0.79;52.52
20971;BME280;10644;48.834;10.088;2023-02-08T07:46:14;98557.97;;;-0.96;52.43
20971;BME280;10644;48.834;10.088;2023-02-08T07:48:42;98541.03;;;-0.63;52.50
20971;BME280;10644;48.834;10.088;2023-02-08T07:51:16;98561.50;;;-0.46;51.61
20971;BME280;10644;48.834;10.088;2023-02-08T07:53:44;98548.03;;;-0.50;51.57
20971;BME280;10644;48.834;10.088;2023-02-08T07:56:12;98546.75;;;-0.28;51.06
20971;BME280;10644;48.834;10.088;2023-02-08T07:58:38;98562.84;;;-0.19;50.67
20971;BME280;10644;48.834;10.088;2023-02-08T08:01:11;98546.41;;;-0.46;51.34
20971;BME280;10644;48.834;10.088;2023-02-08T08:03:51;98543.88;;;-0.48;51.42
20971;BME280;10644;48.834;10.088;2023-02-08T08:06:35;98548.44;;;-0.28;51.34
20971;BME280;10644;48.834;10.088;2023-02-08T08:09:10;98559.59;;;-0.15;50.56
20971;BME280;10644;48.834;10.088;2023-02-08T08:11:37;98542.22;;;-0.02;50.08
20971;BME280;10644;48.834;10.088;2023-02-08T08:14:06;98542.91;;;-0.10;50.39
20971;BME280;10644;48.834;10.088;2023-02-08T08:20:09;98545.59;;;0.00;50.40
20971;BME280;10644;48.834;10.088;2023-02-08T08:25:59;98550.47;;;0.42;49.35
20971;BME280;10644;48.834;10.088;2023-02-08T08:31:32;98529.34;;;0.90;48.36
20971;BME280;10644;48.834;10.088;2023-02-08T08:33:58;98520.06;;;0.88;48.98
20971;BME280;10644;48.834;10.088;2023-02-08T08:36:39;98532.34;;;0.64;49.30
20971;BME280;10644;48.834;10.088;2023-02-08T08:39:06;98529.28;;;0.86;48.36
20971;BME280;10644;48.834;10.088;2023-02-08T08:41:41;98523.25;;;0.75;48.50
20971;BME280;10644;48.834;10.088;2023-02-08T08:44:16;98534.66;;;1.10;48.72
20971;BME280;10644;48.834;10.088;2023-02-08T08:46:56;98533.00;;;1.12;50.36
20971;BME280;10644;48.834;10.088;2023-02-08T08:49:24;98524.50;;;1.80;50.65
20971;BME280;10644;48.834;10.088;2023-02-08T08:51:57;98520.41;;;1.91;47.04
20971;BME280;10644;48.834;10.088;2023-02-08T08:54:34;98524.78;;;2.05;46.03
20971;BME280;10644;48.834;10.088;2023-02-08T08:57:07;98518.50;;;1.67;48.08
20971;BME280;10644;48.834;10.088;2023-02-08T08:59:39;98521.06;;;1.70;46.09
20971;BME280;10644;48.834;10.088;2023-02-08T09:02:10;98523.50;;;1.61;46.36
20971;BME280;10644;48.834;10.088;2023-02-08T09:04:43;98511.84;;;1.75;45.66
20971;BME280;10644;48.834;10.088;2023-02-08T09:07:20;98520.13;;;1.61;46.53
20971;BME280;10644;48.834;10.088;2023-02-08T09:09:49;98514.41;;;1.78;45.78
20971;BME280;10644;48.834;10.088;2023-02-08T09:12:25;98515.28;;;1.80;46.24
20971;BME280;10644;48.834;10.088;2023-02-08T09:14:51;98506.16;;;1.94;46.35
20971;BME280;10644;48.834;10.088;2023-02-08T09:17:16;98513.22;;;2.34;45.56
20971;BME280;10644;48.834;10.088;2023-02-08T09:19:48;98520.09;;;2.52;45.67
20971;BME280;10644;48.834;10.088;2023-02-08T09:22:14;98519.41;;;2.74;44.39
20971;BME280;10644;48.834;10.088;2023-02-08T09:24:40;98511.00;;;2.78;44.00
20971;BME280;10644;48.834;10.088;2023-02-08T09:27:16;98497.41;;;2.62;44.49
20971;BME280;10644;48.834;10.088;2023-02-08T09:29:45;98511.88;;;2.87;43.81
20971;BME280;10644;48.834;10.088;2023-02-08T09:32:21;98509.25;;;2.65;43.34
20971;BME280;10644;48.834;10.088;2023-02-08T09:34:49;98513.50;;;2.73;44.25
20971;BME280;10644;48.834;10.088;2023-02-08T09:37:14;98522.09;;;3.05;44.03
20971;BME280;10644;48.834;10.088;2023-02-08T09:39:43;98512.91;;;3.24;43.54
20971;BME280;10644;48.834;10.088;2023-02-08T09:47:38;98516.50;;;3.92;43.04
20971;BME280;10644;48.834;10.088;2023-02-08T09:50:31;98511.44;;;3.99;42.46
20971;BME280;10644;48.834;10.088;2023-02-08T09:56:01;98512.28;;;4.01;41.27
20971;BME280;10644;48.834;10.088;2023-02-08T09:58:52;98503.84;;;4.20;42.43
20971;BME280;10644;48.834;10.088;2023-02-08T10:01:37;98502.16;;;4.34;40.96
20971;BME280;10644;48.834;10.088;2023-02-08T10:07:26;98495.41;;;4.30;41.35
20971;BME280;10644;48.834;10.088;2023-02-08T10:10:00;98507.22;;;4.48;40.40
20971;BME280;10644;48.834;10.088;2023-02-08T10:25:27;98493.69;;;4.53;43.43
20971;BME280;10644;48.834;10.088;2023-02-08T10:39:42;98485.22;;;4.75;40.25
20971;BME280;10644;48.834;10.088;2023-02-08T10:42:22;98479.16;;;5.15;40.36
20971;BME280;10644;48.834;10.088;2023-02-08T10:48:46;98467.25;;;5.23;41.30
20971;BME280;10644;48.834;10.088;2023-02-08T10:51:20;98460.34;;;5.55;39.41
20971;BME280;10644;48.834;10.088;2023-02-08T10:53:55;98457.84;;;5.45;39.71
20971;BME280;10644;48.834;10.088;2023-02-08T11:01:44;98446.66;;;5.77;39.62
20971;BME280;10644;48.834;10.088;2023-02-08T11:04:14;98436.16;;;6.21;39.72
20971;BME280;10644;48.834;10.088;2023-02-08T11:06:51;98439.28;;;6.50;39.02
20971;BME280;10644;48.834;10.088;2023-02-08T11:11:57;98429.91;;;6.56;38.46
20971;BME280;10644;48.834;10.088;2023-02-08T11:14:51;98430.53;;;6.75;38.68
20971;BME280;10644;48.834;10.088;2023-02-08T11:17:24;98435.69;;;6.69;38.24
20971;BME280;10644;48.834;10.088;2023-02-08T11:19:56;98424.59;;;6.74;37.91
20971;BME280;10644;48.834;10.088;2023-02-08T11:22:30;98415.88;;;6.93;38.29
20971;BME280;10644;48.834;10.088;2023-02-08T11:25:01;98414.44;;;6.73;37.93
20971;BME280;10644;48.834;10.088;2023-02-08T11:27:47;98420.75;;;7.11;36.82
20971;BME280;10644;48.834;10.088;2023-02-08T11:30:52;98417.63;;;6.88;37.24
20971;BME280;10644;48.834;10.088;2023-02-08T11:33:28;98420.72;;;7.14;37.45
20971;BME280;10644;48.834;10.088;2023-02-08T11:36:04;98417.13;;;7.30;37.23
20971;BME280;10644;48.834;10.088;2023-02-08T11:38:35;98411.84;;;7.45;37.18
20971;BME280;10644;48.834;10.088;2023-02-08T11:41:14;98404.41;;;7.27;37.01
20971;BME280;10644;48.834;10.088;2023-02-08T11:43:41;98404.47;;;7.26;37.17
20971;BME280;10644;48.834;10.088;2023-02-08T11:46:12;98402.91;;;7.14;37.19
20971;BME280;10644;48.834;10.088;2023-02-08T11:48:57;98389.56;;;6.94;37.69
20971;BME280;10644;48.834;10.088;2023-02-08T11:51:35;98395.44;;;7.01;38.00
20971;BME280;10644;48.834;10.088;2023-02-08T11:54:04;98387.53;;;6.49;38.25
20971;BME280;10644;48.834;10.088;2023-02-08T11:56:34;98383.81;;;6.80;38.32
20971;BME280;10644;48.834;10.088;2023-02-08T11:59:20;98385.66;;;6.66;38.83
20971;BME280;10644;48.834;10.088;2023-02-08T12:01:47;98381.78;;;7.06;37.97
20971;BME280;10644;48.834;10.088;2023-02-08T12:04:14;98379.84;;;7.23;37.20
20971;BME280;10644;48.834;10.088;2023-02-08T12:07:05;98381.56;;;7.21;37.13
20971;BME280;10644;48.834;10.088;2023-02-08T12:10:04;98379.59;;;7.41;37.82
20971;BME280;10644;48.834;10.088;2023-02-08T12:44:58;98347.59;;;6.54;36.72
20971;BME280;10644;48.834;10.088;2023-02-08T12:52:56;98328.72;;;7.35;36.98
20971;BME280;10644;48.834;10.088;2023-02-08T12:55:30;98330.66;;;7.73;36.36
20971;BME280;10644;48.834;10.088;2023-02-08T12:58:13;98326.38;;;7.76;35.15
20971;BME280;10644;48.834;10.088;2023-02-08T13:00:45;98316.09;;;7.28;35.65
20971;BME280;10644;48.834;10.088;2023-02-08T13:06:19;98320.63;;;6.41;37.38
20971;BME280;10644;48.834;10.088;2023-02-08T13:08:54;98328.03;;;6.62;37.11
20971;BME280;10644;48.834;10.088;2023-02-08T13:12:03;98309.91;;;6.85;36.74
20971;BME280;10644;48.834;10.088;2023-02-08T13:14:36;98300.41;;;6.94;36.86
20971;BME280;10644;48.834;10.088;2023-02-08T13:17:26;98310.25;;;7.20;36.55
20971;BME280;10644;48.834;10.088;2023-02-08T13:20:04;98295.66;;;7.82;36.02
20971;BME280;10644;48.834;10.088;2023-02-08T13:22:34;98301.41;;;7.93;36.00
20971;BME280;10644;48.834;10.088;2023-02-08T13:25:16;98295.41;;;7.97;34.70
20971;BME280;10644;48.834;10.088;2023-02-08T13:27:59;98290.09;;;8.06;35.81
20971;BME280;10644;48.834;10.088;2023-02-08T13:30:34;98303.38;;;7.78;34.93
20971;BME280;10644;48.834;10.088;2023-02-08T13:33:26;98278.41;;;7.96;35.32
20971;BME280;10644;48.834;10.088;2023-02-08T13:36:31;98281.47;;;7.66;35.42
20971;BME280;10644;48.834;10.088;2023-02-08T13:39:02;98280.03;;;8.00;36.88
20971;BME280;10644;48.834;10.088;2023-02-08T13:41:36;98262.22;;;7.97;35.42
20971;BME280;10644;48.834;10.088;2023-02-08T13:44:35;98278.38;;;7.98;35.66
20971;BME280;10644;48.834;10.088;2023-02-08T13:47:31;98276.22;;;8.22;34.63
20971;BME280;10644;48.834;10.088;2023-02-08T13:50:05;98269.47;;;8.21;34.72
20971;BME280;10644;48.834;10.088;2023-02-08T13:52:53;98275.41;;;8.19;34.82
20971;BME280;10644;48.834;10.088;2023-02-08T13:55:57;98277.88;;;8.26;34.55
20971;BME280;10644;48.834;10.088;2023-02-08T14:10:34;98266.63;;;7.89;35.00
20971;BME280;10644;48.834;10.088;2023-02-08T14:13:29;98270.25;;;7.78;35.29
20971;BME280;10644;48.834;10.088;2023-02-08T14:19:31;98271.59;;;6.92;36.33
20971;BME280;10644;48.834;10.088;2023-02-08T14:22:18;98268.28;;;7.42;36.49
20971;BME280;10644;48.834;10.088;2023-02-08T14:24:59;98269.75;;;7.03;36.28
20971;BME280;10644;48.834;10.088;2023-02-08T14:27:36;98269.28;;;6.76;36.74
20971;BME280;10644;48.834;10.088;2023-02-08T14:33:34;98281.88;;;6.86;37.19
20971;BME280;10644;48.834;10.088;2023-02-08T14:36:04;98287.22;;;6.68;41.26
20971;BME280;10644;48.834;10.088;2023-02-08T14:39:34;98298.03;;;6.84;37.52
20971;BME280;10644;48.834;10.088;2023-02-08T14:42:04;98286.94;;;6.89;42.97
20971;BME280;10644;48.834;10.088;2023-02-08T14:50:32;98272.47;;;6.91;38.53
20971;BME280;10644;48.834;10.088;2023-02-08T14:57:00;98289.22;;;6.42;39.44
20971;BME280;10644;48.834;10.088;2023-02-08T14:59:53;98280.59;;;7.17;38.73
20971;BME280;10644;48.834;10.088;2023-02-08T15:02:22;98286.06;;;7.46;38.10
20971;BME280;10644;48.834;10.088;2023-02-08T15:04:57;98285.63;;;7.19;37.81
20971;BME280;10644;48.834;10.088;2023-02-08T15:07:52;98283.75;;;7.31;38.01
20971;BME280;10644;48.834;10.088;2023-02-08T15:10:21;98273.09;;;7.05;37.89
20971;BME280;10644;48.834;10.088;2023-02-08T15:12:56;98277.66;;;6.84;38.38
20971;BME280;10644;48.834;10.088;2023-02-08T15:15:44;98268.78;;;7.10;38.27
20971;BME280;10644;48.834;10.088;2023-02-08T15:18:32;98271.69;;;6.86;37.69
20971;BME280;10644;48.834;10.088;2023-02-08T15:21:28;98274.31;;;6.82;38.27
20971;BME280;10644;48.834;10.088;2023-02-08T15:26:28;98273.41;;;6.84;38.42
20971;BME280;10644;48.834;10.088;2023-02-08T15:29:00;98271.41;;;7.04;38.02
20971;BME280;10644;48.834;10.088;2023-02-08T15:31:36;98271.78;;;6.77;38.57
20971;BME280;10644;48.834;10.088;2023-02-08T15:34:02;98289.41;;;6.94;38.30
20971;BME280;10644;48.834;10.088;2023-02-08T15:37:05;98288.34;;;7.08;38.50
20971;BME280;10644;48.834;10.088;2023-02-08T15:39:38;98281.22;;;7.28;37.99
20971;BME280;10644;48.834;10.088;2023-02-08T15:42:22;98275.72;;;7.01;38.29
20971;BME280;10644;48.834;10.088;2023-02-08T15:44:51;98271.47;;;7.01;37.90
20971;BME280;10644;48.834;10.088;2023-02-08T15:47:29;98281.66;;;7.01;37.79
20971;BME280;10644;48.834;10.088;2023-02-08T15:50:01;98265.66;;;6.92;38.00
20971;BME280;10644;48.834;10.088;2023-02-08T15:52:36;98267.28;;;6.97;37.65
20971;BME280;10644;48.834;10.088;2023-02-08T15:55:15;98266.59;;;6.86;37.42
20971;BME280;10644;48.834;10.088;2023-02-08T15:57:53;98272.09;;;6.56;37.56
20971;BME280;10644;48.834;10.088;2023-02-08T16:00:25;98280.66;;;6.49;37.74
20971;BME280;10644;48.834;10.088;2023-02-08T16:03:22;98272.13;;;6.53;38.05
20971;BME280;10644;48.834;10.088;2023-02-08T16:09:27;98272.34;;;6.35;39.40
20971;BME280;10644;48.834;10.088;2023-02-08T16:12:04;98278.81;;;5.88;39.00
20971;BME280;10644;48.834;10.088;2023-02-08T16:14:33;98278.81;;;5.85;39.12
20971;BME280;10644;48.834;10.088;2023-02-08T16:17:36;98271.56;;;5.43;39.59
20971;BME280;10644;48.834;10.088;2023-02-08T16:20:34;98287.00;;;5.14;39.97
20971;BME280;10644;48.834;10.088;2023-02-08T16:23:22;98283.50;;;5.30;39.52
20971;BME280;10644;48.834;10.088;2023-02-08T16:25:49;98286.38;;;4.81;40.48
20971;BME280;10644;48.834;10.088;2023-02-08T16:38:32;98294.28;;;4.07;42.54
20971;BME280;10644;48.834;10.088;2023-02-08T16:41:02;98290.13;;;3.87;42.79
20971;BME280;10644;48.834;10.088;2023-02-08T16:43:46;98291.03;;;3.48;43.39
20971;BME280;10644;48.834;10.088;2023-02-08T16:46:21;98290.16;;;3.75;43.21
20971;BME280;10644;48.834;10.088;2023-02-08T16:49:26;98303.69;;;3.68;43.36
20971;BME280;10644;48.834;10.088;2023-02-08T16:51:58;98290.06;;;4.15;42.36
20971;BME280;10644;48.834;10.088;2023-02-08T16:54:25;98284.09;;;4.28;42.44
20971;BME280;10644;48.834;10.088;2023-02-08T16:56:55;98282.44;;;4.21;42.37
20971;BME280;10644;48.834;10.088;2023-02-08T16:59:26;98288.47;;;3.75;43.40
20971;BME280;10644;48.834;10.088;2023-02-08T17:02:08;98291.00;;;3.75;43.51
20971;BME280;10644;48.834;10.088;2023-02-08T17:04:34;98296.06;;;3.45;44.11
20971;BME280;10644;48.834;10.088;2023-02-08T17:07:15;98291.84;;;3.23;44.61